ADDS METAR Data INFO

IDs: Format: Raw Decoded Include TAF

Data at: 1846 UTC 03 Mar 2015

Region: TOP
KATL 031814Z 08008KT 1/2SM -RA BR BKN004 OVC007 12/11 A3019 RMK AO2 SFC VIS 3 P0005

KBOS 031754Z 27004KT 10SM OVC200 M01/M17 A3034 RMK AO2 SLP273 T10111167 11011 21061 58017

KBWI 031754Z COR 17005KT 5SM -FZRAPL BKN034 BKN050 OVC085 M01/M08 A3032 RMK AO2 FZRAB51SNB00E51PLB42 SLP267 4/002 P0000 60000 T10111078 11011 21028 58033

KCLE 031812Z 15012KT 5SM -FZRA OVC033 M01/M05 A2984 RMK AO2 PRESFR P0002 I1001 T10111050 $

KCLT 031834Z 07004KT 2SM OVC008 05/03 A3026 RMK AO2 SFC VIS 8 RAE28 P0002

KCVG 031830Z 20011G18KT 1/4SM R18C/3000VP6000FT BR OVC002 06/04 A2983 RMK AO2 SFC VIS 1 RAE09 P0001

KDCA 031752Z 18009KT 10SM -RA OVC044 02/M06 A3032 RMK AO2 RAB04PLB11E32 SLP268 P0001 60001 T00171061 10022 21006 58036

KDEN 031753Z 03014KT 3SM -SN OVC021 M07/M09 A2990 RMK AO2 SFC VIS 6 SLP151 P0000 60000 T10671094 10039 21067 50001

KDFW 031753Z 00000KT 1 1/2SM -DZ BR OVC005 08/08 A2997 RMK AO2 SFC VIS 3 DZE07B37 SLP148 P0000 60002 T00830078 10083 20044 58010

KDTW 031830Z 14009G18KT 4SM -FZRA BR BKN008 BKN014 OVC035 M02/M04 A2973 RMK AO2 FZRAE11B30 PRESFR P0000

KEWR 031751Z 15007KT 10SM SCT085 OVC250 M01/M09 A3037 RMK AO2 SLP283 4/006 933008 T10061089 11006 21050 58021

KFLL 031753Z 11014KT 10SM FEW024 26/20 A3018 RMK AO2 SLP218 60000 T02610200 10267 20222 58013

KIAD 031752Z 16011G16KT 10SM OVC045 M01/M08 A3029 RMK AO2 SLP261 FZRAPLB03E35 T10061083 10000 21033 58036

KIAH 031823Z 19007KT 7SM SCT010 BKN021 OVC045 23/19 A2998 RMK AO2

KJFK 031751Z 16009KT 10SM BKN090 BKN140 OVC250 M01/M11 A3038 RMK AO2 SLP288 4/003 933008 T10111106 11011 21067 58019

KLAS 031756Z 00000KT 10SM FEW060 12/02 A2990 RMK AO2 SLP122 T01170017 10117 20050 50005

KLAX 031753Z VRB04KT 10SM FEW017 SCT090 SCT250 15/05 A2997 RMK AO2 SLP149 T01500050 10150 20083 50010

KLGA 031751Z 16009KT 10SM BKN085 BKN140 OVC200 M02/M10 A3037 RMK AO2 SLP282 4/005 933012 T10171100 11011 21039 58018

KMCO 031753Z 12008KT 10SM FEW029 BKN055 BKN100 27/19 A3020 RMK AO2 SLP225 T02670194 10272 20183 58017

KMDW 031753Z 21015G22KT 2SM BR OVC006 01/M01 A2967 RMK AO2 RAE24 SLP058 4/004 P0000 60005 I1000 I6015 T00111011 10011 21028 56037

KMEM 031754Z 18010KT 1/2SM R36L/4500VP6000FT -DZ BR OVC003 13/12 A3002 RMK AO2 SFC VIS 1 1/2 SLP167 P0000 60000 T01280117 10128 20078 58016

KMIA 031753Z 10015G21KT 10SM BKN030 27/18 A3018 RMK AO2 SLP219 T02670178 10278 20222 58015 $

KMSP 031810Z 28013KT 9SM -SN SCT017 OVC022 M02/M06 A2968 RMK AO2 P0000 T10221061

KORD 031833Z 23014G19KT 2SM -FZDZ BR OVC007 00/M01 A2963 RMK AO2 P0000 I1000 T00001011

KPDX 031753Z VRB03KT 10SM FEW070 FEW250 07/01 A3024 RMK AO2 SLP240 T00670006 10067 21006 51007

KPHL 031754Z 18006KT 10SM BKN080 OVC090 00/M11 A3034 RMK AO2 PRESFR SLP273 VIRGA T00001111 10000 21033 58039 $

KPHX 031751Z 07005KT 10SM FEW035 FEW070 15/07 A2993 RMK AO2 SLP130 T01500067 10156 20083 51003

KPIT 031751Z 14011KT 8SM BKN036 OVC050 01/M07 A2993 RMK AO2 PRESFR SLP160 60000 T00061067 10006 21056 58061

KSAN 031751Z 00000KT 10SM FEW030 SCT110 SCT220 16/06 A2997 RMK AO2 SLP149 T01610056 10167 20111 51009

KSEA 031753Z 35005KT 10SM FEW200 07/M03 A3026 RMK AO2 SLP254 T00721028 10072 20000 53014

KSFO 031756Z 08003KT 10SM FEW012 13/11 A3006 RMK AO2 SLP179 T01280106 10128 20083 51013

KSLC 031818Z 35004KT 4SM R34R/3000VP6000FT -SN BR FEW008 BKN015 OVC029 M01/M01 A2988 RMK AO2 P0001 T10061011

KSTL 031837Z 25008G20KT 2 1/2SM -DZ BR OVC009 09/07 A2980 RMK AO2 P0000

KTPA 031753Z 15009KT 10SM SCT033 BKN250 27/17 A3018 RMK AO2 SLP220 T02720172 10272 20183 58017